createdAt,value
2024-01-07T00:01:51.563Z,4.45
2024-01-07T00:04:19.680Z,4.60
2024-01-07T00:06:48.381Z,4.45
2024-01-07T00:09:17.192Z,4.15
2024-01-07T00:11:44.581Z,4.00
2024-01-07T00:14:12.116Z,4.45
2024-01-07T00:16:41.554Z,4.70
2024-01-07T00:19:09.351Z,5.35
2024-01-07T00:21:36.882Z,4.53
2024-01-07T00:24:04.994Z,4.63
2024-01-07T00:26:32.489Z,5.70
2024-01-07T00:28:59.969Z,5.07
2024-01-07T00:31:27.520Z,5.18
2024-01-07T00:33:55.200Z,4.13
2024-01-07T00:36:22.874Z,5.13
2024-01-07T00:38:50.268Z,4.75
2024-01-07T00:41:17.676Z,4.40
2024-01-07T00:43:44.980Z,3.92
2024-01-07T00:46:12.406Z,4.85
2024-01-07T00:48:39.868Z,4.70
2024-01-07T00:51:07.376Z,4.82
2024-01-07T00:53:34.680Z,4.00
2024-01-07T00:56:02.110Z,4.07
2024-01-07T00:58:29.469Z,4.38
2024-01-07T01:00:57.005Z,3.63
2024-01-07T01:03:24.635Z,4.10
2024-01-07T01:05:52.216Z,4.32
2024-01-07T01:08:19.670Z,3.88
2024-01-07T01:10:47.017Z,4.07
2024-01-07T01:13:14.431Z,4.00
2024-01-07T01:15:41.940Z,4.18
2024-01-07T01:18:09.464Z,4.63
2024-01-07T01:20:36.886Z,4.25
2024-01-07T01:23:04.386Z,4.82
2024-01-07T01:25:31.843Z,4.70
2024-01-07T01:27:59.829Z,4.40
2024-01-07T01:30:28.830Z,3.60
2024-01-07T01:32:56.916Z,4.20
2024-01-07T01:35:24.614Z,3.63
2024-01-07T01:37:51.955Z,3.53
2024-01-07T01:40:19.445Z,3.67
2024-01-07T01:42:49.424Z,4.30
2024-01-07T01:45:17.139Z,3.83
2024-01-07T01:47:45.304Z,3.85
2024-01-07T01:50:13.220Z,3.80
2024-01-07T01:52:41.074Z,4.45
2024-01-07T01:55:08.924Z,4.10
2024-01-07T01:57:39.676Z,3.60
2024-01-07T02:00:08.238Z,4.05
2024-01-07T02:02:36.111Z,3.42
2024-01-07T02:05:05.141Z,3.60
2024-01-07T02:07:33.070Z,3.58
2024-01-07T02:10:01.493Z,3.50
2024-01-07T02:12:29.064Z,3.47
2024-01-07T02:14:56.362Z,3.42
2024-01-07T02:17:23.939Z,3.10
2024-01-07T02:19:51.610Z,3.03
2024-01-07T02:22:20.193Z,3.70
2024-01-07T02:24:48.008Z,3.00
2024-01-07T02:27:15.593Z,2.97
2024-01-07T02:29:42.985Z,3.20
2024-01-07T02:32:10.484Z,2.83
2024-01-07T02:34:37.869Z,2.63
2024-01-07T02:37:05.566Z,2.85
2024-01-07T02:39:33.104Z,2.65
2024-01-07T02:42:00.605Z,3.08
2024-01-07T02:44:28.113Z,2.65
2024-01-07T02:46:55.436Z,2.75
2024-01-07T02:49:23.232Z,2.42
2024-01-07T02:51:51.264Z,2.30
2024-01-07T02:54:18.872Z,2.83
2024-01-07T02:56:46.280Z,2.97
2024-01-07T02:59:13.837Z,2.75
2024-01-07T03:01:42.401Z,3.08
2024-01-07T03:04:12.002Z,2.35
2024-01-07T03:06:39.523Z,2.60
2024-01-07T03:09:07.615Z,2.70
2024-01-07T03:11:35.188Z,2.55
2024-01-07T03:14:02.650Z,2.58
2024-01-07T03:16:30.083Z,2.55
2024-01-07T03:18:57.858Z,2.30
2024-01-07T03:21:25.477Z,2.42
2024-01-07T03:23:52.891Z,2.60
2024-01-07T03:26:21.137Z,2.50
2024-01-07T03:28:48.703Z,2.17
2024-01-07T03:31:17.711Z,2.58
2024-01-07T03:33:45.598Z,2.08
2024-01-07T03:36:14.985Z,2.33
2024-01-07T03:38:42.897Z,2.38
2024-01-07T03:41:10.601Z,2.38
2024-01-07T03:43:38.667Z,2.42
2024-01-07T03:46:06.186Z,2.15
2024-01-07T03:48:33.750Z,1.77
2024-01-07T03:51:01.178Z,2.08
2024-01-07T03:53:28.580Z,2.50
2024-01-07T03:55:55.930Z,2.10
2024-01-07T03:58:23.283Z,2.28
2024-01-07T04:00:50.736Z,2.15
2024-01-07T04:03:18.450Z,1.95
2024-01-07T04:05:48.815Z,1.95
2024-01-07T04:08:19.332Z,2.20
2024-01-07T04:10:47.007Z,1.80
2024-01-07T04:13:14.574Z,2.50
2024-01-07T04:15:42.129Z,1.60
2024-01-07T04:18:09.851Z,2.30
2024-01-07T04:20:37.407Z,2.13
2024-01-07T04:23:05.149Z,1.92
2024-01-07T04:25:32.669Z,1.77
2024-01-07T04:28:00.311Z,1.90
2024-01-07T04:30:27.862Z,2.25
2024-01-07T04:32:55.394Z,1.65
2024-01-07T04:35:23.078Z,1.75
2024-01-07T04:37:50.401Z,1.65
2024-01-07T04:40:17.902Z,1.50
2024-01-07T04:42:45.398Z,1.58
2024-01-07T04:45:12.736Z,1.98
2024-01-07T04:47:40.224Z,1.85
2024-01-07T04:50:08.314Z,1.83
2024-01-07T04:52:38.448Z,1.70
2024-01-07T04:55:06.289Z,1.60
2024-01-07T04:57:33.730Z,1.83
2024-01-07T05:00:01.131Z,1.73
2024-01-07T05:02:28.757Z,1.80
2024-01-07T05:04:56.511Z,1.55
2024-01-07T05:07:24.031Z,1.40
2024-01-07T05:09:51.532Z,1.40
2024-01-07T05:12:18.884Z,2.00
2024-01-07T05:14:47.529Z,1.70
2024-01-07T05:17:14.952Z,1.50
2024-01-07T05:19:43.148Z,1.40
2024-01-07T05:22:11.026Z,1.70
2024-01-07T05:24:40.036Z,1.50
2024-01-07T05:27:07.801Z,1.48
2024-01-07T05:29:35.241Z,1.52
2024-01-07T05:32:04.157Z,1.88
2024-01-07T05:34:31.871Z,1.50
2024-01-07T05:36:59.372Z,1.73
2024-01-07T05:39:26.809Z,1.38
2024-01-07T05:41:54.142Z,1.30
2024-01-07T05:44:21.598Z,1.75
2024-01-07T05:46:49.000Z,1.42
2024-01-07T05:49:16.759Z,1.27
2024-01-07T05:51:44.333Z,1.50
2024-01-07T05:54:11.850Z,1.48
2024-01-07T05:56:42.544Z,1.60
2024-01-07T06:01:37.611Z,2.17
2024-01-07T06:04:05.415Z,1.50
2024-01-07T06:06:35.143Z,2.00
2024-01-07T06:09:03.796Z,1.23
2024-01-07T06:11:31.153Z,1.40
2024-01-07T06:13:58.596Z,1.30
2024-01-07T06:16:26.051Z,1.50
2024-01-07T06:18:53.857Z,1.70
2024-01-07T06:21:21.342Z,1.60
2024-01-07T06:23:48.679Z,1.60
2024-01-07T06:26:16.365Z,1.60
2024-01-07T06:28:43.662Z,1.65
2024-01-07T06:31:11.132Z,1.60
2024-01-07T06:33:38.795Z,1.60
2024-01-07T06:36:07.047Z,1.17
2024-01-07T06:38:35.253Z,1.70
2024-01-07T06:41:05.126Z,1.58
2024-01-07T06:43:33.360Z,1.83
2024-01-07T06:46:00.886Z,1.50
2024-01-07T06:48:28.529Z,1.60
2024-01-07T06:50:56.229Z,1.45
2024-01-07T06:53:23.682Z,1.35
2024-01-07T06:55:51.018Z,1.20
2024-01-07T06:58:18.451Z,1.17
2024-01-07T07:00:46.010Z,1.10
2024-01-07T07:03:13.610Z,1.20
2024-01-07T07:05:41.267Z,1.35
2024-01-07T07:08:08.911Z,1.33
2024-01-07T07:10:36.328Z,1.40
2024-01-07T07:13:03.798Z,1.50
2024-01-07T07:15:31.261Z,1.40
2024-01-07T07:17:58.828Z,1.30
2024-01-07T07:20:26.135Z,1.40
2024-01-07T07:22:53.628Z,1.30
2024-01-07T07:25:21.078Z,1.27
2024-01-07T07:27:48.709Z,1.30
2024-01-07T07:30:17.202Z,1.20
2024-01-07T07:32:45.532Z,1.40
2024-01-07T07:35:13.325Z,1.45
2024-01-07T07:37:40.996Z,1.58
2024-01-07T07:40:08.745Z,1.63
2024-01-07T07:42:36.163Z,1.40
2024-01-07T07:45:04.038Z,1.45
2024-01-07T07:47:31.689Z,1.90
2024-01-07T07:49:59.443Z,1.42
2024-01-07T07:52:27.327Z,1.70
2024-01-07T07:54:55.789Z,1.80
2024-01-07T07:57:23.436Z,1.95
2024-01-07T07:59:50.856Z,1.30
2024-01-07T08:02:18.911Z,1.50
2024-01-07T08:04:46.222Z,1.60
2024-01-07T08:07:13.916Z,1.27
2024-01-07T08:09:41.589Z,1.70
2024-01-07T08:12:09.264Z,1.52
2024-01-07T08:14:36.960Z,1.60
2024-01-07T08:17:06.047Z,1.55
2024-01-07T08:19:33.913Z,1.45
2024-01-07T08:22:01.598Z,1.50
2024-01-07T08:24:29.123Z,1.40
2024-01-07T08:26:56.581Z,1.50
2024-01-07T08:29:24.131Z,1.30
2024-01-07T08:31:51.820Z,1.77
2024-01-07T08:34:19.472Z,1.70
2024-01-07T08:36:46.881Z,2.00
2024-01-07T08:39:17.499Z,2.05
2024-01-07T08:41:45.290Z,1.30
2024-01-07T08:44:13.253Z,1.88
2024-01-07T08:46:40.752Z,1.60
2024-01-07T08:49:08.244Z,1.63
2024-01-07T08:51:35.690Z,1.63
2024-01-07T08:54:03.055Z,1.30
2024-01-07T08:56:31.613Z,1.35
2024-01-07T08:59:00.531Z,1.50
2024-01-07T09:01:27.977Z,1.33
2024-01-07T09:03:55.464Z,1.30
2024-01-07T09:06:22.927Z,1.20
2024-01-07T09:08:50.423Z,1.27
2024-01-07T09:11:21.125Z,1.70
2024-01-07T09:16:19.113Z,1.35
2024-01-07T09:18:46.908Z,1.60
2024-01-07T09:21:15.294Z,1.70
2024-01-07T09:23:43.124Z,1.40
2024-01-07T09:26:10.599Z,1.40
2024-01-07T09:28:37.942Z,1.17
2024-01-07T09:31:05.543Z,1.60
2024-01-07T09:33:33.332Z,1.30
2024-01-07T09:36:06.622Z,1.55
2024-01-07T09:38:43.155Z,1.33
2024-01-07T09:41:10.791Z,1.40
2024-01-07T09:43:38.272Z,1.40
2024-01-07T09:46:05.810Z,1.40
2024-01-07T09:48:34.925Z,1.92
2024-01-07T09:51:02.786Z,1.10
2024-01-07T09:53:33.642Z,1.65
2024-01-07T09:56:30.934Z,1.45
2024-01-07T09:58:58.588Z,1.40
2024-01-07T10:01:27.483Z,1.30
2024-01-07T10:03:55.241Z,1.67
2024-01-07T10:06:22.572Z,1.63
2024-01-07T10:08:50.032Z,1.73
2024-01-07T10:11:17.881Z,1.95
2024-01-07T10:13:49.187Z,1.70
2024-01-07T10:16:16.977Z,1.95
2024-01-07T10:18:44.842Z,1.73
2024-01-07T10:21:12.367Z,1.60
2024-01-07T10:23:39.966Z,1.80
2024-01-07T10:26:15.566Z,1.52
2024-01-07T10:28:50.963Z,1.80
2024-01-07T10:31:18.788Z,2.00
2024-01-07T10:33:46.401Z,2.63
2024-01-07T10:36:13.821Z,2.10
2024-01-07T10:38:44.589Z,2.05
2024-01-07T10:41:13.495Z,1.83
2024-01-07T10:43:43.241Z,2.55
2024-01-07T10:46:13.265Z,2.70
2024-01-07T10:48:52.414Z,2.72
2024-01-07T10:51:21.587Z,2.70
2024-01-07T10:53:57.179Z,2.78
2024-01-07T10:56:26.213Z,2.70
2024-01-07T10:58:55.980Z,2.42
2024-01-07T11:01:23.500Z,3.43
2024-01-07T11:04:04.074Z,2.92
2024-01-07T11:06:50.715Z,2.78
2024-01-07T11:09:21.320Z,3.15
2024-01-07T11:11:49.025Z,2.67
2024-01-07T11:14:54.092Z,2.60
2024-01-07T11:17:33.982Z,2.70
2024-01-07T11:20:01.676Z,2.17
2024-01-07T11:22:29.919Z,3.13
2024-01-07T11:24:59.479Z,2.70
2024-01-07T11:27:32.608Z,2.45
2024-01-07T11:30:20.681Z,3.13
2024-01-07T11:32:50.909Z,2.78
2024-01-07T11:35:58.841Z,2.67
2024-01-07T11:38:26.412Z,2.55
2024-01-07T11:40:56.355Z,3.42
2024-01-07T11:43:24.134Z,3.22
2024-01-07T11:45:53.035Z,2.40
2024-01-07T11:48:20.761Z,2.60
2024-01-07T11:50:49.691Z,2.85
2024-01-07T11:53:18.416Z,2.53
2024-01-07T11:55:46.515Z,2.92
2024-01-07T11:58:14.465Z,2.60
2024-01-07T12:00:42.008Z,3.10
2024-01-07T12:03:09.641Z,2.63
2024-01-07T12:05:37.089Z,2.75
2024-01-07T12:08:04.895Z,3.00
2024-01-07T12:10:32.529Z,2.40
2024-01-07T12:13:00.447Z,2.88
2024-01-07T12:15:29.250Z,2.78
2024-01-07T12:18:01.099Z,2.60
2024-01-07T12:20:29.308Z,2.78
2024-01-07T12:23:10.221Z,2.80
2024-01-07T12:25:38.230Z,3.22
2024-01-07T12:28:08.027Z,2.90
2024-01-07T12:30:35.956Z,3.10
2024-01-07T12:33:06.711Z,3.33
2024-01-07T12:38:03.814Z,3.50
2024-01-07T12:40:31.418Z,3.53
2024-01-07T12:42:59.131Z,2.95
2024-01-07T12:45:26.549Z,3.20
2024-01-07T12:47:55.994Z,3.00
2024-01-07T12:50:24.591Z,3.20
2024-01-07T12:52:52.090Z,3.35
2024-01-07T12:55:19.680Z,3.53
2024-01-07T12:57:47.279Z,3.13
2024-01-07T13:00:15.415Z,3.28
2024-01-07T13:02:43.289Z,3.17
2024-01-07T13:05:11.059Z,3.50
2024-01-07T13:07:39.902Z,3.28
2024-01-07T13:10:08.134Z,3.15
2024-01-07T13:12:43.373Z,2.80
2024-01-07T13:15:17.983Z,2.60
2024-01-07T13:17:46.156Z,3.30
2024-01-07T13:20:14.015Z,3.15
2024-01-07T13:22:42.074Z,3.25
2024-01-07T13:25:09.614Z,2.47
2024-01-07T13:27:38.230Z,2.70
2024-01-07T13:30:07.331Z,2.40
2024-01-07T13:32:38.194Z,3.08
2024-01-07T13:35:11.940Z,2.60
2024-01-07T13:37:42.611Z,2.35
2024-01-07T13:40:12.102Z,2.00
2024-01-07T13:42:39.650Z,2.60
2024-01-07T13:45:07.468Z,3.10
2024-01-07T13:47:36.927Z,2.45
2024-01-07T13:50:05.101Z,2.72
2024-01-07T13:52:34.066Z,2.60
2024-01-07T13:55:01.747Z,2.53
2024-01-07T13:57:29.224Z,2.38
2024-01-07T13:59:56.700Z,2.40
2024-01-07T14:02:24.247Z,2.65
2024-01-07T14:04:53.068Z,2.95
2024-01-07T14:07:22.561Z,2.63
2024-01-07T14:09:51.038Z,2.90
2024-01-07T14:12:18.427Z,2.50
2024-01-07T14:14:45.760Z,2.78
2024-01-07T14:17:13.699Z,3.10
2024-01-07T14:19:41.264Z,2.83
2024-01-07T14:22:08.718Z,2.85
2024-01-07T14:24:36.251Z,2.75
2024-01-07T14:27:03.919Z,2.45
2024-01-07T14:29:31.446Z,2.55
2024-01-07T14:31:59.030Z,2.65
2024-01-07T14:34:26.691Z,3.03
2024-01-07T14:36:54.457Z,2.78
2024-01-07T14:39:21.901Z,2.55
2024-01-07T14:41:49.404Z,3.08
2024-01-07T14:44:17.048Z,2.63
2024-01-07T14:46:44.595Z,3.28
2024-01-07T14:49:12.062Z,2.72
2024-01-07T14:51:39.522Z,3.08
2024-01-07T14:54:06.983Z,2.70
2024-01-07T14:56:34.355Z,2.70
2024-01-07T14:59:01.640Z,2.70
2024-01-07T15:01:29.998Z,2.65
2024-01-07T15:03:57.595Z,2.42
2024-01-07T15:06:25.133Z,2.65
2024-01-07T15:08:52.572Z,2.58
2024-01-07T15:11:20.106Z,2.40
2024-01-07T15:13:47.901Z,2.55
2024-01-07T15:16:15.336Z,2.45
2024-01-07T15:18:43.000Z,2.50
2024-01-07T15:21:10.631Z,3.22
2024-01-07T15:23:38.257Z,2.15
2024-01-07T15:26:06.062Z,2.25
2024-01-07T15:28:35.469Z,2.05
2024-01-07T15:31:02.984Z,2.20
2024-01-07T15:33:30.658Z,2.78
2024-01-07T15:35:58.111Z,3.65
2024-01-07T15:38:26.163Z,2.42
2024-01-07T15:40:53.408Z,2.00
2024-01-07T15:43:20.947Z,2.30
2024-01-07T15:45:48.559Z,2.03
2024-01-07T15:48:16.074Z,1.90
2024-01-07T15:50:43.549Z,2.38
2024-01-07T15:53:12.399Z,2.28
2024-01-07T15:55:39.929Z,2.20
2024-01-07T15:58:07.304Z,2.40
2024-01-07T16:00:34.913Z,2.22
2024-01-07T16:03:02.414Z,2.00
2024-01-07T16:05:31.130Z,2.75
2024-01-07T16:07:58.681Z,1.77
2024-01-07T16:10:26.232Z,2.28
2024-01-07T16:12:53.746Z,2.00
2024-01-07T16:15:21.136Z,2.25
2024-01-07T16:17:48.756Z,2.40
2024-01-07T16:20:17.011Z,2.15
2024-01-07T16:22:44.465Z,1.95
2024-01-07T16:25:11.883Z,2.03
2024-01-07T16:27:40.401Z,2.22
2024-01-07T16:30:11.605Z,2.38
2024-01-07T16:32:39.488Z,1.80
2024-01-07T16:35:07.439Z,2.50
2024-01-07T16:37:34.862Z,1.88
2024-01-07T16:40:02.457Z,2.35
2024-01-07T16:42:29.934Z,2.42
2024-01-07T16:44:57.230Z,2.72
2024-01-07T16:47:24.835Z,2.40
2024-01-07T16:50:20.540Z,1.95
2024-01-07T16:52:39.886Z,2.63
2024-01-07T16:55:09.868Z,2.22
2024-01-07T16:57:38.598Z,2.35
2024-01-07T17:00:07.861Z,2.50
2024-01-07T17:02:35.424Z,3.03
2024-01-07T17:05:03.012Z,2.70
2024-01-07T17:07:31.726Z,2.38
2024-01-07T17:09:59.236Z,2.25
2024-01-07T17:12:26.561Z,2.55
2024-01-07T17:14:54.031Z,2.67
2024-01-07T17:17:21.496Z,2.63
2024-01-07T17:19:49.792Z,2.60
2024-01-07T17:22:17.309Z,2.65
2024-01-07T17:24:45.424Z,3.00
2024-01-07T17:27:13.068Z,2.75
2024-01-07T17:29:40.431Z,2.67
2024-01-07T17:32:11.593Z,2.80
2024-01-07T17:34:39.149Z,3.17
2024-01-07T17:37:06.659Z,3.13
2024-01-07T17:39:34.813Z,3.30
2024-01-07T17:42:07.194Z,2.50
2024-01-07T17:44:34.863Z,2.83
2024-01-07T17:47:02.358Z,2.95
2024-01-07T17:49:29.901Z,3.15
2024-01-07T17:51:57.797Z,2.80
2024-01-07T17:54:25.188Z,3.25
2024-01-07T17:56:52.743Z,3.13
2024-01-07T17:59:21.036Z,3.15
2024-01-07T18:01:49.716Z,3.58
2024-01-07T18:04:17.213Z,3.33
2024-01-07T18:06:45.316Z,2.92
2024-01-07T18:09:13.053Z,3.15
2024-01-07T18:11:40.719Z,2.95
2024-01-07T18:14:08.382Z,3.42
2024-01-07T18:16:37.652Z,3.40
2024-01-07T18:19:07.617Z,3.13
2024-01-07T18:21:35.308Z,3.00
2024-01-07T18:24:02.864Z,2.88
2024-01-07T18:26:31.003Z,2.90
2024-01-07T18:28:58.919Z,3.15
2024-01-07T18:31:26.249Z,2.90
2024-01-07T18:33:53.788Z,3.38
2024-01-07T18:36:21.522Z,2.80
2024-01-07T18:38:49.208Z,2.95
2024-01-07T18:41:22.661Z,3.25
2024-01-07T18:43:52.417Z,2.60
2024-01-07T18:46:20.022Z,2.70
2024-01-07T18:48:49.122Z,3.50
2024-01-07T18:51:16.769Z,2.80
2024-01-07T18:53:44.343Z,2.75
2024-01-07T18:56:11.822Z,2.58
2024-01-07T18:58:40.875Z,2.53
2024-01-07T19:01:08.693Z,2.45
2024-01-07T19:03:36.308Z,2.65
2024-01-07T19:06:04.214Z,2.47
2024-01-07T19:08:32.250Z,2.80
2024-01-07T19:10:59.727Z,3.33
2024-01-07T19:13:27.559Z,2.53
2024-01-07T19:15:55.091Z,2.35
2024-01-07T19:18:22.702Z,2.47
2024-01-07T19:20:50.128Z,2.50
2024-01-07T19:23:17.850Z,2.33
2024-01-07T19:25:47.271Z,2.50
2024-01-07T19:28:15.993Z,2.35
2024-01-07T19:30:46.067Z,2.40
2024-01-07T19:33:15.371Z,2.35
2024-01-07T19:35:42.985Z,2.30
2024-01-07T19:38:10.389Z,2.65
2024-01-07T19:40:37.825Z,2.70
2024-01-07T19:43:06.577Z,3.60
2024-01-07T19:45:33.926Z,2.83
2024-01-07T19:48:02.219Z,2.90
2024-01-07T19:50:29.825Z,2.63
2024-01-07T19:52:57.770Z,2.40
2024-01-07T19:55:25.220Z,2.25
2024-01-07T19:57:52.833Z,2.80
2024-01-07T20:00:20.535Z,2.60
2024-01-07T20:02:50.423Z,2.67
2024-01-07T20:05:18.617Z,2.50
2024-01-07T20:07:46.181Z,2.72
2024-01-07T20:10:13.606Z,3.75
2024-01-07T20:12:41.141Z,2.90
2024-01-07T20:15:08.988Z,3.03
2024-01-07T20:17:37.472Z,2.70
2024-01-07T20:20:05.449Z,3.40
2024-01-07T20:22:33.147Z,3.45
2024-01-07T20:25:00.556Z,2.95
2024-01-07T20:27:28.129Z,2.80
2024-01-07T20:29:55.922Z,3.38
2024-01-07T20:32:24.355Z,2.90
2024-01-07T20:34:53.571Z,3.65
2024-01-07T20:37:21.033Z,2.80
2024-01-07T20:39:48.538Z,3.55
2024-01-07T20:42:27.336Z,3.00
2024-01-07T20:45:04.892Z,3.50
2024-01-07T20:47:33.220Z,2.97
2024-01-07T20:50:00.787Z,3.10
2024-01-07T20:52:29.296Z,3.00
2024-01-07T20:54:56.776Z,3.53
2024-01-07T20:57:27.333Z,3.20
2024-01-07T20:59:54.933Z,3.30
2024-01-07T21:02:22.496Z,3.95
2024-01-07T21:04:51.455Z,3.13
2024-01-07T21:07:18.908Z,2.97
2024-01-07T21:09:46.274Z,3.28
2024-01-07T21:12:14.205Z,2.60
2024-01-07T21:14:41.616Z,3.75
2024-01-07T21:17:09.823Z,3.40
2024-01-07T21:19:37.254Z,3.08
2024-01-07T21:22:04.916Z,3.03
2024-01-07T21:24:32.543Z,3.33
2024-01-07T21:27:00.898Z,3.20
2024-01-07T21:29:28.510Z,3.25
2024-01-07T21:31:56.130Z,3.05
2024-01-07T21:34:23.553Z,3.10
2024-01-07T21:36:52.420Z,3.40
2024-01-07T21:39:22.407Z,3.92
2024-01-07T21:41:50.638Z,2.75
2024-01-07T21:44:18.152Z,3.17
2024-01-07T21:46:49.520Z,3.30
2024-01-07T21:49:18.193Z,3.00
2024-01-07T21:51:45.934Z,3.28
2024-01-07T21:54:13.673Z,4.05
2024-01-07T21:56:41.121Z,3.30
2024-01-07T21:59:08.937Z,3.35
2024-01-07T22:01:36.466Z,2.83
2024-01-07T22:04:03.945Z,3.40
2024-01-07T22:06:31.519Z,2.90
2024-01-07T22:08:59.012Z,3.20
2024-01-07T22:11:26.561Z,3.40
2024-01-07T22:13:54.145Z,3.20
2024-01-07T22:16:21.804Z,3.03
2024-01-07T22:18:49.183Z,2.83
2024-01-07T22:21:19.944Z,2.88
2024-01-07T22:26:15.536Z,3.05
2024-01-07T22:28:46.822Z,2.83
2024-01-07T22:31:14.978Z,3.03
2024-01-07T22:33:42.825Z,3.45
2024-01-07T22:36:10.715Z,2.97
2024-01-07T22:38:38.445Z,3.35
2024-01-07T22:41:08.347Z,3.40
2024-01-07T22:43:35.825Z,2.10
2024-01-07T22:46:03.333Z,2.88
2024-01-07T22:48:33.254Z,3.03
2024-01-07T22:51:01.389Z,3.20
2024-01-07T22:53:29.165Z,3.58
2024-01-07T22:55:56.663Z,3.42
2024-01-07T22:58:24.172Z,3.60
2024-01-07T23:00:51.898Z,3.15
2024-01-07T23:03:19.765Z,3.28
2024-01-07T23:05:47.409Z,3.10
2024-01-07T23:08:16.813Z,3.20
2024-01-07T23:10:44.445Z,3.25
2024-01-07T23:13:11.984Z,3.63
2024-01-07T23:15:39.596Z,3.28
2024-01-07T23:18:07.532Z,3.40
2024-01-07T23:20:36.045Z,3.03
2024-01-07T23:23:03.977Z,3.30
2024-01-07T23:25:31.408Z,3.85
2024-01-07T23:27:58.984Z,3.25
2024-01-07T23:30:26.603Z,3.25
2024-01-07T23:32:54.164Z,3.25
2024-01-07T23:35:21.871Z,3.85
2024-01-07T23:37:49.604Z,3.78
2024-01-07T23:40:16.986Z,3.25
2024-01-07T23:42:44.647Z,3.63
2024-01-07T23:45:12.066Z,3.53
2024-01-07T23:47:39.992Z,3.50
2024-01-07T23:50:12.917Z,3.92
2024-01-07T23:52:40.743Z,3.80
2024-01-07T23:55:08.670Z,3.97
2024-01-07T23:57:36.075Z,3.75
